Terminal Aerodrome Forecast
Issued by NWS

Home | Current Version | Previous Version | Graphics & Text | Print | Product List | Glossary On
Versions: 1 2 3 4 5 6 7 8 9 10 11 12 13 14 15 16 17 18 19 20
000
FTUS41 KCLE 210500
TAFFDY
TAF
KFDY 210538Z 2106/2206 VRB03KT P6SM BKN250
     FM210800 00000KT 4SM BR SCT250
     FM211030 00000KT 1 1/2SM BR SCT250
     FM211300 00000KT 4SM BR SCT250
     FM211400 VRB03KT P6SM SCT250
     FM211600 VRB03KT P6SM SCT045
     FM212200 VRB03KT P6SM SKC=

USA.gov is the U.S. government's official web portal to all federal, state and local government web resources and services.